createdAt,value
2019-02-25T04:48:01.540Z,-0.59
2019-02-25T04:50:32.884Z,-0.61
2019-02-25T04:53:03.341Z,-0.49
2019-02-25T04:55:34.056Z,-0.29
2019-02-25T04:58:04.589Z,-0.10
2019-02-25T05:00:35.100Z,0.08
2019-02-25T05:03:05.646Z,0.29
2019-02-25T05:05:36.179Z,0.48
2019-02-25T05:08:06.713Z,0.64
2019-02-25T05:10:37.112Z,0.74
2019-02-25T05:13:08.788Z,0.90
2019-02-25T05:15:39.428Z,1.00
2019-02-25T05:18:09.824Z,1.09
2019-02-25T05:20:40.285Z,1.12
2019-02-25T05:23:10.703Z,1.23
2019-02-25T05:25:41.138Z,1.27
2019-02-25T05:28:11.533Z,1.38
2019-02-25T05:30:42.061Z,1.40
2019-02-25T05:33:12.543Z,1.42
2019-02-25T05:35:42.953Z,1.46
2019-02-25T05:38:13.391Z,1.56
2019-02-25T05:40:43.808Z,1.61
2019-02-25T05:43:14.243Z,1.76
2019-02-25T05:45:44.646Z,1.89
2019-02-25T05:48:15.202Z,1.92
2019-02-25T05:50:45.735Z,2.00
2019-02-25T05:53:16.153Z,2.00
2019-02-25T05:55:46.589Z,2.00
2019-02-25T05:58:17.025Z,2.07
2019-02-25T06:00:47.414Z,2.12
2019-02-25T06:03:17.870Z,2.16
2019-02-25T06:05:48.307Z,2.17
2019-02-25T06:08:18.834Z,2.22
2019-02-25T06:10:49.773Z,2.36
2019-02-25T06:13:20.242Z,2.43
2019-02-25T06:15:51.389Z,2.54
2019-02-25T06:18:22.009Z,2.64
2019-02-25T06:20:52.507Z,2.74
2019-02-25T06:23:22.938Z,2.86
2019-02-25T06:25:53.470Z,2.94
2019-02-25T06:28:24.003Z,3.00
2019-02-25T06:30:54.479Z,3.10
2019-02-25T06:33:24.880Z,3.18
2019-02-25T06:35:55.387Z,3.27
2019-02-25T06:38:26.014Z,3.39
2019-02-25T06:40:57.486Z,3.42
2019-02-25T06:43:27.985Z,3.52
2019-02-25T06:45:58.401Z,3.61
2019-02-25T06:48:28.824Z,3.78
2019-02-25T06:51:00.792Z,3.95
2019-02-25T06:53:31.321Z,4.13
2019-02-25T06:56:01.797Z,4.20
2019-02-25T06:58:32.291Z,4.30
2019-02-25T07:01:02.814Z,4.45
2019-02-25T07:03:33.221Z,4.51
2019-02-25T07:06:14.240Z,4.60
2019-02-25T07:08:49.349Z,4.79
2019-02-25T07:11:33.089Z,4.96
2019-02-25T07:14:08.096Z,5.11
2019-02-25T07:16:46.033Z,5.29
2019-02-25T07:19:33.152Z,5.44
2019-02-25T07:22:08.197Z,5.47
2019-02-25T07:24:53.092Z,5.66
2019-02-25T07:27:34.260Z,5.79
2019-02-25T07:30:09.391Z,5.88
2019-02-25T07:32:59.668Z,6.11
2019-02-25T07:35:43.545Z,6.05
2019-02-25T07:38:39.411Z,6.14
2019-02-25T07:41:19.552Z,6.34
2019-02-25T07:43:57.358Z,6.33
2019-02-25T07:46:38.267Z,6.29
2019-02-25T07:49:14.329Z,6.26
2019-02-25T07:51:52.349Z,6.30
2019-02-25T07:54:24.519Z,6.25
2019-02-25T07:57:02.412Z,6.31
2019-02-25T07:59:34.474Z,6.48
2019-02-25T08:02:15.758Z,6.49
2019-02-25T08:04:47.806Z,6.54
2019-02-25T08:07:22.654Z,6.53
2019-02-25T08:09:57.508Z,6.58
2019-02-25T08:12:29.652Z,6.67
2019-02-25T08:15:04.487Z,6.69
2019-02-25T08:17:36.647Z,6.80
2019-02-25T08:20:27.047Z,6.77
2019-02-25T08:23:01.979Z,6.77
2019-02-25T08:25:52.019Z,6.91
2019-02-25T08:28:27.210Z,7.04
2019-02-25T08:30:59.275Z,6.99
2019-02-25T08:33:31.441Z,7.05
2019-02-25T08:36:24.815Z,7.21
2019-02-25T08:39:12.241Z,7.35
2019-02-25T08:41:47.379Z,7.37
2019-02-25T08:44:28.194Z,7.64
2019-02-25T08:47:15.511Z,7.71
2019-02-25T08:49:47.639Z,7.84
2019-02-25T08:52:19.399Z,7.86
2019-02-25T08:54:49.794Z,7.92
2019-02-25T08:57:20.218Z,7.89
2019-02-25T08:59:50.780Z,8.07
2019-02-25T09:02:21.212Z,8.09
2019-02-25T09:04:51.647Z,8.22
2019-02-25T09:07:22.089Z,8.41
2019-02-25T09:09:54.035Z,8.54
2019-02-25T09:12:24.428Z,8.50
2019-02-25T09:14:54.997Z,8.60
2019-02-25T09:17:25.414Z,8.56
2019-02-25T09:19:56.059Z,8.76
2019-02-25T09:22:26.464Z,8.86
2019-02-25T09:24:56.908Z,8.93
2019-02-25T09:27:27.302Z,8.78
2019-02-25T09:29:57.873Z,9.01
2019-02-25T09:32:29.972Z,9.08
2019-02-25T09:35:00.467Z,9.27
2019-02-25T09:37:30.999Z,9.55
2019-02-25T09:40:01.528Z,9.71
2019-02-25T09:42:32.465Z,9.77
2019-02-25T09:45:02.857Z,9.74
2019-02-25T09:47:33.429Z,9.80
2019-02-25T09:50:04.374Z,9.89
2019-02-25T09:52:34.827Z,10.00
2019-02-25T09:55:07.663Z,9.88
2019-02-25T09:57:38.204Z,9.57
2019-02-25T10:00:12.745Z,9.46
2019-02-25T10:02:43.172Z,9.46
2019-02-25T10:05:13.745Z,9.66
2019-02-25T10:07:44.433Z,9.95
2019-02-25T10:10:17.445Z,9.94
2019-02-25T10:12:48.926Z,10.06
2019-02-25T10:15:27.082Z,10.02
2019-02-25T10:17:57.612Z,10.00
2019-02-25T10:20:28.143Z,10.17
2019-02-25T10:22:58.675Z,10.21
2019-02-25T10:25:29.149Z,10.35
2019-02-25T10:27:59.805Z,10.48
2019-02-25T10:30:30.235Z,10.34
2019-02-25T10:33:00.960Z,10.41
2019-02-25T10:35:31.395Z,10.32
2019-02-25T10:38:03.238Z,10.54
2019-02-25T10:40:33.755Z,10.56
2019-02-25T10:43:04.280Z,10.64
2019-02-25T10:45:36.767Z,10.82
2019-02-25T10:48:06.995Z,10.98
2019-02-25T10:50:38.597Z,10.94
2019-02-25T10:53:10.957Z,11.01
2019-02-25T10:56:03.869Z,11.14
2019-02-25T10:58:36.014Z,11.11
2019-02-25T11:01:08.473Z,11.21
2019-02-25T11:03:38.743Z,11.21
2019-02-25T11:06:09.160Z,11.55
2019-02-25T11:08:43.672Z,11.73
2019-02-25T11:11:20.442Z,11.46
2019-02-25T11:13:50.891Z,11.52
2019-02-25T11:16:21.534Z,11.30
2019-02-25T11:18:54.449Z,11.24
2019-02-25T11:21:24.668Z,11.33
2019-02-25T11:23:55.066Z,11.36
2019-02-25T11:26:26.683Z,11.43
2019-02-25T11:28:57.873Z,11.40
2019-02-25T11:31:29.137Z,11.43
2019-02-25T11:34:00.700Z,11.39
2019-02-25T11:36:31.851Z,11.55
2019-02-25T11:39:02.904Z,11.59
2019-02-25T11:41:37.158Z,11.81
2019-02-25T11:44:08.403Z,11.84
2019-02-25T11:46:38.885Z,11.94
2019-02-25T11:49:09.317Z,12.10
2019-02-25T11:51:39.850Z,12.21
2019-02-25T11:54:10.378Z,12.38
2019-02-25T11:56:40.913Z,12.61
2019-02-25T11:59:11.342Z,12.70
2019-02-25T12:01:41.914Z,12.84
2019-02-25T12:04:12.404Z,12.84
2019-02-25T12:06:42.934Z,12.93
2019-02-25T12:09:13.465Z,12.94
2019-02-25T12:11:43.869Z,12.89
2019-02-25T12:14:14.524Z,12.89
2019-02-25T12:16:44.949Z,12.95
2019-02-25T12:19:17.868Z,12.76
2019-02-25T12:21:47.653Z,12.83
2019-02-25T12:24:18.075Z,12.82
2019-02-25T12:26:48.504Z,12.88
2019-02-25T12:29:18.938Z,12.97
2019-02-25T12:31:49.381Z,12.90
2019-02-25T12:34:19.889Z,12.91
2019-02-25T12:36:50.320Z,12.96
2019-02-25T12:39:20.754Z,13.08
2019-02-25T12:41:51.283Z,13.19
2019-02-25T12:44:21.813Z,13.10
2019-02-25T12:46:52.302Z,13.10
2019-02-25T12:49:22.874Z,13.13
2019-02-25T12:51:53.405Z,13.11
2019-02-25T12:54:23.805Z,13.07
2019-02-25T12:56:55.392Z,13.03
2019-02-25T12:59:25.807Z,13.08
2019-02-25T13:01:56.760Z,13.05
2019-02-25T13:04:27.285Z,13.11
2019-02-25T13:06:57.817Z,13.20
2019-02-25T13:09:28.345Z,13.21
2019-02-25T13:11:58.816Z,13.09
2019-02-25T13:14:29.299Z,13.00
2019-02-25T13:16:59.737Z,12.90
2019-02-25T13:19:30.269Z,12.82
2019-02-25T13:22:00.800Z,12.86
2019-02-25T13:24:37.733Z,12.93
2019-02-25T13:27:11.810Z,12.95
2019-02-25T13:29:41.660Z,12.95
2019-02-25T13:32:12.139Z,13.10
2019-02-25T13:34:42.621Z,13.12
2019-02-25T13:37:13.089Z,13.05
2019-02-25T13:39:43.711Z,13.11
2019-02-25T13:42:14.215Z,13.14
2019-02-25T13:44:44.785Z,13.16
2019-02-25T13:47:15.276Z,13.23
2019-02-25T13:49:45.794Z,13.22
2019-02-25T13:52:16.388Z,13.41
2019-02-25T13:54:46.869Z,13.34
2019-02-25T13:57:17.451Z,13.43
2019-02-25T13:59:47.995Z,13.51
2019-02-25T14:02:18.511Z,13.68
2019-02-25T14:04:49.299Z,13.74
2019-02-25T14:07:20.080Z,13.84
2019-02-25T14:09:50.607Z,13.83
2019-02-25T14:12:21.139Z,13.72
2019-02-25T14:14:51.549Z,13.84
2019-02-25T14:17:22.005Z,13.96
2019-02-25T14:19:52.732Z,13.90
2019-02-25T14:22:23.260Z,13.83
2019-02-25T14:24:53.790Z,13.83
2019-02-25T14:27:24.225Z,13.78
2019-02-25T14:29:54.756Z,13.88
2019-02-25T14:32:25.185Z,13.93
2019-02-25T14:34:55.914Z,13.89
2019-02-25T14:37:26.347Z,13.81
2019-02-25T14:40:00.745Z,13.71
2019-02-25T14:42:31.056Z,13.71
2019-02-25T14:45:04.561Z,13.72
2019-02-25T14:47:37.085Z,13.65
2019-02-25T14:50:09.963Z,13.63
2019-02-25T14:52:40.387Z,13.57
2019-02-25T14:55:11.839Z,13.58
2019-02-25T14:57:43.819Z,13.69
2019-02-25T15:00:18.996Z,13.55
2019-02-25T15:02:50.375Z,13.46
2019-02-25T15:05:23.872Z,13.33
2019-02-25T15:07:54.294Z,13.20
2019-02-25T15:10:28.992Z,13.13
2019-02-25T15:12:59.117Z,12.94
2019-02-25T15:15:29.319Z,12.91
2019-02-25T15:17:59.741Z,12.86
2019-02-25T15:20:30.215Z,12.85
2019-02-25T15:23:00.747Z,12.67
2019-02-25T15:25:33.342Z,12.61
2019-02-25T15:28:07.088Z,12.64
2019-02-25T15:30:36.885Z,12.58
2019-02-25T15:33:07.563Z,12.60
2019-02-25T15:35:39.381Z,12.51
2019-02-25T15:38:10.272Z,12.41
2019-02-25T15:40:40.883Z,12.37
2019-02-25T15:43:15.116Z,12.31
2019-02-25T15:45:45.019Z,12.21
2019-02-25T15:48:17.964Z,12.24
2019-02-25T15:50:50.676Z,12.11
2019-02-25T15:53:21.659Z,12.08
2019-02-25T15:55:52.053Z,12.00
2019-02-25T15:58:23.058Z,11.91
2019-02-25T16:00:53.587Z,11.92
2019-02-25T16:03:24.118Z,11.86
2019-02-25T16:05:57.954Z,11.78
2019-02-25T16:08:28.658Z,11.73
2019-02-25T16:11:00.170Z,11.61
2019-02-25T16:13:31.772Z,11.51
2019-02-25T16:16:02.478Z,11.38
2019-02-25T16:18:33.045Z,11.26
2019-02-25T16:21:03.671Z,11.15
2019-02-25T16:23:36.520Z,11.06
2019-02-25T16:26:06.377Z,10.93
2019-02-25T16:28:37.918Z,10.82
2019-02-25T16:31:10.530Z,10.71
2019-02-25T16:33:41.284Z,10.65
2019-02-25T16:36:11.778Z,10.58
2019-02-25T16:38:42.181Z,10.48
2019-02-25T16:41:12.733Z,10.43
2019-02-25T16:43:43.169Z,10.38
2019-02-25T16:46:16.215Z,10.38
2019-02-25T16:48:48.269Z,10.34
2019-02-25T16:51:18.651Z,10.32
2019-02-25T16:53:51.887Z,10.30
2019-02-25T16:56:21.463Z,10.27
2019-02-25T16:58:52.755Z,10.19
2019-02-25T17:01:25.993Z,10.14
2019-02-25T17:03:56.318Z,10.06
2019-02-25T17:06:28.123Z,10.07
2019-02-25T17:08:59.019Z,9.99
2019-02-25T17:11:29.448Z,9.95
2019-02-25T17:14:01.526Z,9.95
2019-02-25T17:16:32.241Z,9.99
2019-02-25T17:19:02.796Z,9.99
2019-02-25T17:21:33.275Z,9.98
2019-02-25T17:24:05.686Z,9.91
2019-02-25T17:26:36.009Z,9.87
2019-02-25T17:29:06.540Z,9.80
2019-02-25T17:31:38.689Z,9.79
2019-02-25T17:34:10.031Z,9.81
2019-02-25T17:36:43.076Z,9.76
2019-02-25T17:39:15.490Z,9.77
2019-02-25T17:41:47.070Z,9.73
2019-02-25T17:44:17.949Z,9.69
2019-02-25T17:46:49.716Z,9.63
2019-02-25T17:49:20.306Z,9.59
2019-02-25T17:51:51.265Z,9.57
2019-02-25T17:54:24.012Z,9.55
2019-02-25T17:56:54.555Z,9.55
2019-02-25T17:59:25.711Z,9.48
2019-02-25T18:01:57.220Z,9.42
2019-02-25T18:04:28.303Z,9.37
2019-02-25T18:06:59.749Z,9.36
2019-02-25T18:09:30.147Z,9.36
2019-02-25T18:12:02.183Z,9.34
2019-02-25T18:14:32.987Z,9.29
2019-02-25T18:17:05.947Z,9.28
2019-02-25T18:19:35.684Z,9.26
2019-02-25T18:22:06.160Z,9.26
2019-02-25T18:24:36.748Z,9.23
2019-02-25T18:27:09.120Z,9.22
2019-02-25T18:29:41.374Z,9.20
2019-02-25T18:32:12.312Z,9.19
2019-02-25T18:34:43.069Z,9.08
2019-02-25T18:37:15.461Z,9.03
2019-02-25T18:39:47.420Z,8.97
2019-02-25T18:42:18.570Z,8.95
2019-02-25T18:44:51.348Z,8.89
2019-02-25T18:47:23.441Z,8.85
2019-02-25T18:49:56.127Z,8.81
2019-02-25T18:52:27.483Z,8.80
2019-02-25T18:54:59.803Z,8.80
2019-02-25T18:57:30.955Z,8.76
2019-02-25T19:00:03.572Z,8.76
2019-02-25T19:02:35.966Z,8.69
2019-02-25T19:05:11.344Z,8.66
2019-02-25T19:07:40.158Z,8.60
2019-02-25T19:10:12.498Z,8.55
2019-02-25T19:12:43.870Z,8.51
2019-02-25T19:15:15.102Z,8.52
2019-02-25T19:17:46.327Z,8.51
2019-02-25T19:20:17.699Z,8.48
2019-02-25T19:22:48.257Z,8.44
2019-02-25T19:25:20.838Z,8.41
